Time;durP1;ratioP1;P1;durP2;ratioP2;P2;SDS_P1;SDS_P2;PMS_P1;PMS_P2;Temp;Humidity;BMP_temperature;BMP_pressure;BME280_temperature;BME280_humidity;BME280_pressure;Samples;Min_cycle;Max_cycle;Signal;HPM_P1;HPM_P2
2023/03/21 00:01:51;;;;;;;89.32;53.08;;;;;;;;;;5099478;28;20242;-43
2023/03/21 00:04:20;;;;;;;78.88;54.25;;;;;;;;;;5098927;28;20203;-43
2023/03/21 00:06:47;;;;;;;79.53;54.08;;;;;;;;;;5098720;28;20206;-42
2023/03/21 00:09:15;;;;;;;86.07;54.28;;;;;;;;;;5098329;28;20766;-43
2023/03/21 00:11:42;;;;;;;83.72;55.88;;;;;;;;;;5098239;28;20644;-43
2023/03/21 00:14:13;;;;;;;85.30;59.20;;;;;;;;;;5098759;28;20665;-43
2023/03/21 00:16:40;;;;;;;92.35;58.00;;;;;;;;;;5098011;28;20213;-42
2023/03/21 00:19:09;;;;;;;129.52;74.90;;;;;;;;;;5098182;28;20206;-44
2023/03/21 00:21:37;;;;;;;175.20;110.40;;;;;;;;;;5098480;28;20202;-44
2023/03/21 00:24:18;;;;;;;109.05;68.88;;;;;;;;;;5098258;28;20213;-43
2023/03/21 00:26:45;;;;;;;81.85;57.13;;;;;;;;;;5097952;28;20202;-46
2023/03/21 00:29:12;;;;;;;98.93;60.17;;;;;;;;;;5098122;28;20198;-43
2023/03/21 00:31:39;;;;;;;95.80;59.75;;;;;;;;;;5098408;28;20213;-43
2023/03/21 00:34:06;;;;;;;88.20;58.65;;;;;;;;;;5097975;28;20669;-43
2023/03/21 00:36:34;;;;;;;86.55;59.35;;;;;;;;;;5096902;28;20199;-42
2023/03/21 00:39:01;;;;;;;84.95;58.47;;;;;;;;;;5096797;28;20283;-43
2023/03/21 00:41:28;;;;;;;87.22;59.75;;;;;;;;;;5097830;28;20206;-44
2023/03/21 00:44:14;;;;;;;91.38;60.60;;;;;;;;;;5097898;28;20264;-42
2023/03/21 00:46:42;;;;;;;89.18;60.25;;;;;;;;;;5097894;28;20199;-44
2023/03/21 00:49:32;;;;;;;90.97;59.72;;;;;;;;;;5097500;28;20601;-43
2023/03/21 00:52:05;;;;;;;94.97;62.30;;;;;;;;;;5097702;28;20215;-43
2023/03/21 00:54:46;;;;;;;85.60;60.08;;;;;;;;;;5097365;28;20363;-43
2023/03/21 00:57:13;;;;;;;92.93;59.88;;;;;;;;;;5097640;28;20222;-43
2023/03/21 00:59:40;;;;;;;91.93;59.70;;;;;;;;;;5097350;28;20534;-42
2023/03/21 01:02:13;;;;;;;97.00;63.72;;;;;;;;;;5097833;28;20226;-42
2023/03/21 01:04:41;;;;;;;98.53;66.60;;;;;;;;;;5097225;28;20631;-42
2023/03/21 01:07:09;;;;;;;89.80;62.65;;;;;;;;;;5097281;28;20198;-43
2023/03/21 01:09:37;;;;;;;102.15;64.60;;;;;;;;;;5096558;28;20195;-43
2023/03/21 01:12:05;;;;;;;92.85;60.67;;;;;;;;;;5096524;28;20203;-43
2023/03/21 01:14:32;;;;;;;96.55;63.22;;;;;;;;;;5097057;28;20226;-43
2023/03/21 01:16:59;;;;;;;97.88;63.90;;;;;;;;;;5097180;28;20683;-44
2023/03/21 01:19:27;;;;;;;97.20;64.78;;;;;;;;;;5096433;28;20263;-43
2023/03/21 01:22:14;;;;;;;143.38;84.03;;;;;;;;;;5097073;28;20209;-43
2023/03/21 01:24:42;;;;;;;104.13;67.93;;;;;;;;;;5097003;28;20629;-43
2023/03/21 01:27:21;;;;;;;89.88;61.22;;;;;;;;;;5097128;28;20187;-43
2023/03/21 01:29:49;;;;;;;99.53;62.15;;;;;;;;;;5095869;28;20586;-43
2023/03/21 01:32:16;;;;;;;95.25;61.42;;;;;;;;;;5096630;28;20198;-44
2023/03/21 01:34:44;;;;;;;332.10;203.73;;;;;;;;;;5096018;28;20256;-42
2023/03/21 01:37:11;;;;;;;143.02;87.28;;;;;;;;;;5096813;28;20256;-43
2023/03/21 01:39:45;;;;;;;105.85;68.15;;;;;;;;;;5095975;28;20255;-42
2023/03/21 01:42:13;;;;;;;110.40;66.85;;;;;;;;;;5097006;28;20198;-45
2023/03/21 01:44:52;;;;;;;109.45;67.82;;;;;;;;;;5095575;28;20625;-43
2023/03/21 01:47:20;;;;;;;97.20;63.97;;;;;;;;;;5095652;28;20199;-44
2023/03/21 01:50:01;;;;;;;87.20;60.10;;;;;;;;;;5095895;28;20521;-42
2023/03/21 01:52:45;;;;;;;90.55;61.75;;;;;;;;;;5095863;28;20218;-43
2023/03/21 01:55:17;;;;;;;89.25;60.70;;;;;;;;;;5095655;28;20222;-44
2023/03/21 01:58:10;;;;;;;96.25;62.70;;;;;;;;;;5095767;28;20202;-43
2023/03/21 02:01:03;;;;;;;92.93;60.47;;;;;;;;;;5087633;28;20337;-43
2023/03/21 02:03:48;;;;;;;92.80;60.20;;;;;;;;;;5095343;28;20202;-44
2023/03/21 02:06:43;;;;;;;90.13;60.63;;;;;;;;;;5094907;28;20279;-43
2023/03/21 02:09:23;;;;;;;89.57;60.25;;;;;;;;;;5080520;28;20202;-43
2023/03/21 02:11:53;;;;;;;88.93;60.42;;;;;;;;;;5078558;28;20203;-42
2023/03/21 02:14:22;;;;;;;90.80;61.15;;;;;;;;;;5079098;28;20612;-43
2023/03/21 02:17:44;;;;;;;90.30;59.90;;;;;;;;;;5073857;28;20214;-42
2023/03/21 02:20:26;;;;;;;93.60;60.03;;;;;;;;;;5058384;28;20203;-43
2023/03/21 02:23:20;;;;;;;93.93;60.67;;;;;;;;;;5081374;28;20237;-43
2023/03/21 02:26:00;;;;;;;95.82;59.83;;;;;;;;;;5095038;28;20210;-42
2023/03/21 02:29:00;;;;;;;90.82;59.92;;;;;;;;;;5078511;28;20195;-43
2023/03/21 02:31:47;;;;;;;83.75;58.30;;;;;;;;;;5078464;28;20202;-43
2023/03/21 02:34:30;;;;;;;88.78;57.30;;;;;;;;;;5094717;28;20253;-44
2023/03/21 02:37:13;;;;;;;96.32;63.25;;;;;;;;;;5095433;28;20199;-43
2023/03/21 02:39:52;;;;;;;89.57;58.65;;;;;;;;;;5078173;28;20209;-42
2023/03/21 02:42:52;;;;;;;93.38;59.17;;;;;;;;;;5077980;28;20209;-43
2023/03/21 02:45:40;;;;;;;161.95;92.68;;;;;;;;;;5081036;28;20233;-42
2023/03/21 02:48:11;;;;;;;95.60;60.20;;;;;;;;;;5094480;28;20202;-43
2023/03/21 02:50:55;;;;;;;93.50;59.50;;;;;;;;;;5094734;28;20202;-43
2023/03/21 02:53:27;;;;;;;92.45;58.70;;;;;;;;;;5078602;28;20228;-42
2023/03/21 02:55:56;;;;;;;87.50;56.55;;;;;;;;;;5078464;28;20234;-43
2023/03/21 02:58:26;;;;;;;84.15;55.22;;;;;;;;;;5077959;28;20194;-42
2023/03/21 03:00:57;;;;;;;79.97;55.42;;;;;;;;;;5077729;28;20230;-43
2023/03/21 03:03:35;;;;;;;77.72;51.70;;;;;;;;;;5094649;28;20194;-43
2023/03/21 03:06:27;;;;;;;83.20;52.42;;;;;;;;;;5094643;28;20255;-43
2023/03/21 03:09:16;;;;;;;81.03;53.63;;;;;;;;;;5093734;28;20217;-43
2023/03/21 03:11:44;;;;;;;72.55;48.70;;;;;;;;;;5095070;28;20651;-42
2023/03/21 03:14:39;;;;;;;78.00;50.05;;;;;;;;;;5077545;28;20552;-42
2023/03/21 03:17:36;;;;;;;75.75;49.17;;;;;;;;;;5094332;28;20202;-43
2023/03/21 03:20:18;;;;;;;72.13;48.28;;;;;;;;;;5094345;28;20244;-43
2023/03/21 03:22:57;;;;;;;77.53;49.45;;;;;;;;;;5093933;28;20198;-43
2023/03/21 03:25:35;;;;;;;70.40;47.75;;;;;;;;;;5095013;28;20213;-43
2023/03/21 03:28:14;;;;;;;69.55;45.15;;;;;;;;;;5093969;28;20694;-43
2023/03/21 03:30:43;;;;;;;70.35;44.05;;;;;;;;;;5077940;28;20229;-42
2023/03/21 03:33:33;;;;;;;78.95;47.17;;;;;;;;;;5080794;28;20187;-42
2023/03/21 03:36:01;;;;;;;65.32;42.83;;;;;;;;;;5095156;28;20230;-42
2023/03/21 03:38:36;;;;;;;67.07;44.60;;;;;;;;;;5078116;28;20213;-43
2023/03/21 03:41:10;;;;;;;70.68;43.83;;;;;;;;;;5094121;28;20229;-42
2023/03/21 03:43:54;;;;;;;74.80;45.53;;;;;;;;;;5093751;28;20545;-44
2023/03/21 03:46:32;;;;;;;67.60;45.05;;;;;;;;;;5077703;28;20637;-43
2023/03/21 03:49:08;;;;;;;69.35;45.72;;;;;;;;;;5077299;28;20202;-45
2023/03/21 03:51:45;;;;;;;66.75;44.30;;;;;;;;;;5077850;28;20206;-42
2023/03/21 03:54:28;;;;;;;71.18;43.92;;;;;;;;;;5093728;28;20198;-43
2023/03/21 03:56:57;;;;;;;76.63;47.33;;;;;;;;;;5093963;28;20198;-42
2023/03/21 03:59:24;;;;;;;71.90;45.47;;;;;;;;;;5077028;28;20264;-43
2023/03/21 04:02:13;;;;;;;75.13;46.25;;;;;;;;;;5094499;28;20384;-42
2023/03/21 04:04:40;;;;;;;81.07;50.22;;;;;;;;;;5093638;28;20226;-43
2023/03/21 04:07:08;;;;;;;117.50;66.05;;;;;;;;;;5094498;28;20203;-42
2023/03/21 04:09:38;;;;;;;101.90;58.95;;;;;;;;;;5093345;28;20198;-43
2023/03/21 04:12:14;;;;;;;70.70;45.92;;;;;;;;;;5093607;28;20232;-43
2023/03/21 04:14:52;;;;;;;82.75;46.90;;;;;;;;;;5093264;28;20222;-43
2023/03/21 04:17:28;;;;;;;72.05;44.58;;;;;;;;;;5093232;28;20608;-42
2023/03/21 04:19:55;;;;;;;66.88;43.78;;;;;;;;;;5095250;28;20268;-44
2023/03/21 04:22:36;;;;;;;69.68;44.03;;;;;;;;;;5097373;28;20271;-42
2023/03/21 04:25:04;;;;;;;70.18;44.38;;;;;;;;;;5097809;28;20656;-43
2023/03/21 04:27:33;;;;;;;71.28;43.95;;;;;;;;;;5096903;28;20203;-42
2023/03/21 04:30:19;;;;;;;68.35;43.35;;;;;;;;;;5097155;28;20210;-43
2023/03/21 04:32:55;;;;;;;71.05;44.22;;;;;;;;;;5095979;28;20203;-45
2023/03/21 04:35:25;;;;;;;69.63;43.63;;;;;;;;;;5079282;28;20276;-43
2023/03/21 04:37:52;;;;;;;72.38;44.80;;;;;;;;;;5077476;28;20211;-43
2023/03/21 04:40:19;;;;;;;68.90;43.13;;;;;;;;;;5076578;28;20199;-44
2023/03/21 04:42:47;;;;;;;71.40;43.47;;;;;;;;;;5087715;28;20198;-44
2023/03/21 04:45:15;;;;;;;72.07;44.58;;;;;;;;;;5097660;28;20241;-43
2023/03/21 04:47:44;;;;;;;70.68;44.70;;;;;;;;;;5096653;28;20202;-44
2023/03/21 04:50:12;;;;;;;73.78;43.22;;;;;;;;;;5096083;28;20324;-44
2023/03/21 04:52:40;;;;;;;69.20;43.50;;;;;;;;;;5083544;28;20633;-46
2023/03/21 04:55:08;;;;;;;71.03;43.05;;;;;;;;;;5086457;28;20248;-46
2023/03/21 04:57:38;;;;;;;72.53;43.92;;;;;;;;;;5079484;28;20294;-43
2023/03/21 05:00:09;;;;;;;69.55;43.78;;;;;;;;;;5076745;28;20203;-45
2023/03/21 05:02:37;;;;;;;69.38;44.03;;;;;;;;;;5077034;28;20235;-43
2023/03/21 05:05:10;;;;;;;73.93;44.80;;;;;;;;;;5076251;28;20203;-43
2023/03/21 05:07:38;;;;;;;81.70;49.95;;;;;;;;;;5075348;28;20196;-43
2023/03/21 05:10:08;;;;;;;84.03;49.95;;;;;;;;;;5077953;28;20517;-50
2023/03/21 05:12:37;;;;;;;78.95;44.45;;;;;;;;;;5074546;28;20223;-48
2023/03/21 05:15:05;;;;;;;80.30;44.10;;;;;;;;;;5077637;28;20600;-43
2023/03/21 05:17:33;;;;;;;72.57;42.75;;;;;;;;;;5088483;28;20227;-43
2023/03/21 05:20:00;;;;;;;73.78;41.28;;;;;;;;;;5092450;28;20214;-51
2023/03/21 05:22:28;;;;;;;72.43;39.90;;;;;;;;;;5095343;28;20222;-43
2023/03/21 05:24:56;;;;;;;87.43;52.67;;;;;;;;;;5090695;28;20223;-44
2023/03/21 05:27:52;;;;;;;71.95;41.60;;;;;;;;;;5070000;28;20231;-43
2023/03/21 05:30:24;;;;;;;72.40;41.67;;;;;;;;;;5075059;28;20231;-43
2023/03/21 05:32:56;;;;;;;77.50;42.22;;;;;;;;;;5073932;28;20298;-43
2023/03/21 05:35:23;;;;;;;69.50;40.40;;;;;;;;;;5074401;28;20266;-44
2023/03/21 05:37:54;;;;;;;76.97;42.35;;;;;;;;;;5074938;28;20238;-44
2023/03/21 05:40:24;;;;;;;79.05;44.15;;;;;;;;;;5074472;28;20227;-44
2023/03/21 05:42:55;;;;;;;75.70;41.75;;;;;;;;;;5074798;28;20257;-43
2023/03/21 05:45:23;;;;;;;84.63;44.42;;;;;;;;;;5074637;28;20230;-44
2023/03/21 05:47:51;;;;;;;88.43;45.20;;;;;;;;;;5074084;28;20234;-43
2023/03/21 05:50:22;;;;;;;90.90;47.05;;;;;;;;;;5074825;28;20235;-43
2023/03/21 05:53:03;;;;;;;88.22;47.40;;;;;;;;;;5074503;28;20223;-43
2023/03/21 05:55:31;;;;;;;86.78;44.20;;;;;;;;;;5082420;28;20234;-44
2023/03/21 05:57:59;;;;;;;80.45;44.50;;;;;;;;;;5094293;28;20223;-44
2023/03/21 06:00:29;;;;;;;91.50;46.65;;;;;;;;;;5094656;28;20218;-43
2023/03/21 06:03:20;;;;;;;88.10;45.78;;;;;;;;;;5088009;28;20227;-43
2023/03/21 06:06:05;;;;;;;87.47;45.50;;;;;;;;;;5083023;28;20308;-45
2023/03/21 06:08:38;;;;;;;82.53;44.13;;;;;;;;;;5074316;28;20234;-44
2023/03/21 06:11:09;;;;;;;83.32;45.28;;;;;;;;;;5077202;28;20306;-47
2023/03/21 06:13:37;;;;;;;85.28;45.63;;;;;;;;;;5077907;28;20199;-43
2023/03/21 06:16:04;;;;;;;79.18;42.42;;;;;;;;;;5094684;28;20272;-43
2023/03/21 06:18:34;;;;;;;89.28;48.47;;;;;;;;;;5094102;28;20183;-43
2023/03/21 06:21:24;;;;;;;73.53;41.05;;;;;;;;;;5090160;28;20289;-43
2023/03/21 06:23:53;;;;;;;68.35;38.33;;;;;;;;;;5094481;28;20199;-43
2023/03/21 06:26:22;;;;;;;73.82;41.75;;;;;;;;;;5093935;28;20199;-43
2023/03/21 06:28:52;;;;;;;68.65;39.10;;;;;;;;;;5095134;28;20229;-43
2023/03/21 06:31:21;;;;;;;67.25;36.55;;;;;;;;;;5094756;28;20203;-43
2023/03/21 06:33:50;;;;;;;63.13;37.10;;;;;;;;;;5095807;28;20199;-43
2023/03/21 06:36:18;;;;;;;65.40;37.05;;;;;;;;;;5095442;28;20291;-43
2023/03/21 06:38:45;;;;;;;70.25;37.38;;;;;;;;;;5095855;28;20244;-43
2023/03/21 06:41:13;;;;;;;65.20;35.03;;;;;;;;;;5094921;28;20214;-43
2023/03/21 06:43:48;;;;;;;66.20;39.78;;;;;;;;;;5094815;28;20202;-43
2023/03/21 06:46:16;;;;;;;61.58;35.80;;;;;;;;;;5078077;28;20217;-42
2023/03/21 06:48:44;;;;;;;51.13;29.50;;;;;;;;;;5094741;28;20217;-43
2023/03/21 06:51:13;;;;;;;60.20;35.25;;;;;;;;;;5095588;28;20198;-43
2023/03/21 06:53:50;;;;;;;55.00;33.35;;;;;;;;;;5094504;28;20202;-43
2023/03/21 06:56:24;;;;;;;63.70;36.92;;;;;;;;;;5094447;28;20680;-43
2023/03/21 06:58:52;;;;;;;65.07;35.65;;;;;;;;;;5094586;28;20206;-43
2023/03/21 07:01:42;;;;;;;62.15;35.60;;;;;;;;;;5094739;28;20623;-43
2023/03/21 07:04:10;;;;;;;61.03;37.08;;;;;;;;;;5094518;28;20210;-43
2023/03/21 07:06:38;;;;;;;61.15;35.10;;;;;;;;;;5094294;28;20210;-43
2023/03/21 07:09:05;;;;;;;56.13;33.10;;;;;;;;;;5095179;28;20202;-43
2023/03/21 07:11:34;;;;;;;57.78;34.80;;;;;;;;;;5094914;28;20206;-44
2023/03/21 07:14:03;;;;;;;64.00;36.38;;;;;;;;;;5094421;28;20194;-43
2023/03/21 07:16:30;;;;;;;61.17;35.08;;;;;;;;;;5094028;28;20754;-43
2023/03/21 07:18:57;;;;;;;62.50;34.28;;;;;;;;;;5094379;28;20195;-43
2023/03/21 07:21:25;;;;;;;62.35;35.92;;;;;;;;;;5094141;28;20199;-43
2023/03/21 07:23:53;;;;;;;59.03;33.33;;;;;;;;;;5094583;28;20258;-43
2023/03/21 07:26:20;;;;;;;57.80;33.88;;;;;;;;;;5094081;28;20202;-43
2023/03/21 07:28:47;;;;;;;63.88;34.92;;;;;;;;;;5095404;28;20203;-43
2023/03/21 07:31:16;;;;;;;66.95;36.00;;;;;;;;;;5095054;28;20202;-43
2023/03/21 07:33:43;;;;;;;61.55;34.45;;;;;;;;;;5094096;28;20272;-43
2023/03/21 07:36:15;;;;;;;66.18;35.13;;;;;;;;;;5093694;28;20226;-44
2023/03/21 07:38:45;;;;;;;63.30;33.70;;;;;;;;;;5093894;28;20206;-43
2023/03/21 07:41:12;;;;;;;60.90;35.28;;;;;;;;;;5093722;28;20210;-43
2023/03/21 07:43:40;;;;;;;60.97;34.67;;;;;;;;;;5094180;28;20222;-43
2023/03/21 07:46:10;;;;;;;58.97;34.47;;;;;;;;;;5094084;28;20202;-44
2023/03/21 07:48:38;;;;;;;57.00;33.13;;;;;;;;;;5093909;28;20255;-43
2023/03/21 07:51:05;;;;;;;61.35;35.67;;;;;;;;;;5094368;28;20702;-42
2023/03/21 07:53:34;;;;;;;58.90;34.45;;;;;;;;;;5093912;28;20210;-43
2023/03/21 07:56:02;;;;;;;55.25;33.00;;;;;;;;;;5097978;28;20226;-43
2023/03/21 07:58:33;;;;;;;57.30;31.73;;;;;;;;;;5098823;28;20213;-43
2023/03/21 08:01:01;;;;;;;57.17;32.03;;;;;;;;;;5098543;28;20238;-44
2023/03/21 08:03:29;;;;;;;56.92;31.70;;;;;;;;;;5098512;28;20211;-43
2023/03/21 08:05:58;;;;;;;56.40;30.92;;;;;;;;;;5098936;28;20203;-43
2023/03/21 08:08:26;;;;;;;52.75;29.65;;;;;;;;;;5098442;28;20587;-42
2023/03/21 08:10:53;;;;;;;57.35;31.90;;;;;;;;;;5098804;28;20206;-43
2023/03/21 08:13:20;;;;;;;52.38;28.65;;;;;;;;;;5098371;28;20207;-43
2023/03/21 08:15:48;;;;;;;55.05;30.70;;;;;;;;;;5098390;28;20218;-43
2023/03/21 08:18:15;;;;;;;58.03;32.95;;;;;;;;;;5098434;28;20203;-43
2023/03/21 08:20:42;;;;;;;50.33;29.05;;;;;;;;;;5098168;28;20215;-43
2023/03/21 08:23:10;;;;;;;55.55;30.58;;;;;;;;;;5098412;28;20206;-43
2023/03/21 08:25:38;;;;;;;53.55;29.35;;;;;;;;;;5098362;28;20199;-43
2023/03/21 08:28:06;;;;;;;47.30;26.10;;;;;;;;;;5098016;28;20217;-43
2023/03/21 08:30:33;;;;;;;54.53;30.55;;;;;;;;;;5097953;28;20195;-43
2023/03/21 08:33:00;;;;;;;59.20;32.42;;;;;;;;;;5098197;28;20217;-43
2023/03/21 08:35:29;;;;;;;61.45;33.55;;;;;;;;;;5097834;28;20203;-43
2023/03/21 08:37:56;;;;;;;84.28;49.35;;;;;;;;;;5098081;28;20198;-43
2023/03/21 08:40:24;;;;;;;56.03;31.75;;;;;;;;;;5097831;28;20290;-43
2023/03/21 08:42:52;;;;;;;58.90;32.38;;;;;;;;;;5097723;28;20260;-43
2023/03/21 08:45:19;;;;;;;68.22;37.40;;;;;;;;;;5097708;28;20232;-43
2023/03/21 08:47:46;;;;;;;59.13;31.35;;;;;;;;;;5097956;28;20230;-43
2023/03/21 08:50:17;;;;;;;56.17;31.42;;;;;;;;;;5097891;28;20289;-43
2023/03/21 08:52:45;;;;;;;60.10;32.63;;;;;;;;;;5097882;28;20241;-43
2023/03/21 08:55:13;;;;;;;57.00;33.10;;;;;;;;;;5097662;28;20289;-44
2023/03/21 08:57:41;;;;;;;57.03;31.20;;;;;;;;;;5097746;28;20242;-43
2023/03/21 09:00:13;;;;;;;54.90;30.17;;;;;;;;;;5098201;28;20198;-43
2023/03/21 09:02:41;;;;;;;60.83;32.40;;;;;;;;;;5097346;28;20238;-43
2023/03/21 09:05:10;;;;;;;48.33;29.00;;;;;;;;;;5097054;28;20694;-43
2023/03/21 09:07:39;;;;;;;48.67;26.40;;;;;;;;;;5096394;28;20189;-44
2023/03/21 09:10:11;;;;;;;39.85;24.70;;;;;;;;;;5097191;28;20517;-45
2023/03/21 09:12:52;;;;;;;64.75;32.55;;;;;;;;;;5097762;28;20199;-43
2023/03/21 09:15:23;;;;;;;64.90;34.22;;;;;;;;;;5097254;28;20516;-43
2023/03/21 09:17:55;;;;;;;47.55;26.48;;;;;;;;;;5097131;28;20239;-43
2023/03/21 09:20:29;;;;;;;42.42;25.30;;;;;;;;;;5097317;28;20244;-43
2023/03/21 09:22:58;;;;;;;56.90;29.60;;;;;;;;;;5097502;28;20240;-43
2023/03/21 09:25:29;;;;;;;73.40;38.45;;;;;;;;;;5097560;28;20289;-44
2023/03/21 09:28:03;;;;;;;43.65;25.15;;;;;;;;;;5097248;28;20582;-43
2023/03/21 09:30:33;;;;;;;41.70;25.95;;;;;;;;;;5097085;28;20206;-44
2023/03/21 09:33:02;;;;;;;44.78;24.88;;;;;;;;;;5096792;28;20207;-43
2023/03/21 09:35:29;;;;;;;36.25;21.80;;;;;;;;;;5096980;28;20207;-43
2023/03/21 09:37:57;;;;;;;42.50;24.55;;;;;;;;;;5096503;28;20237;-43
2023/03/21 09:40:51;;;;;;;41.28;24.70;;;;;;;;;;5096883;28;20202;-45
2023/03/21 09:43:48;;;;;;;44.00;25.10;;;;;;;;;;5096581;28;20236;-44
2023/03/21 09:46:42;;;;;;;41.45;25.40;;;;;;;;;;5097065;28;20271;-43
2023/03/21 09:49:15;;;;;;;43.92;25.52;;;;;;;;;;5095620;28;20203;-43
2023/03/21 09:51:49;;;;;;;41.35;24.77;;;;;;;;;;5096462;28;20263;-44
2023/03/21 09:54:26;;;;;;;37.83;24.55;;;;;;;;;;5096725;28;20202;-43
2023/03/21 09:56:57;;;;;;;37.38;22.02;;;;;;;;;;5096323;28;20214;-43
2023/03/21 09:59:36;;;;;;;36.42;21.80;;;;;;;;;;5095746;28;20519;-43
2023/03/21 10:02:39;;;;;;;35.17;21.48;;;;;;;;;;5095371;28;20226;-43
2023/03/21 10:05:16;;;;;;;37.38;22.02;;;;;;;;;;5096120;28;20277;-43
2023/03/21 10:07:49;;;;;;;36.95;21.20;;;;;;;;;;5095377;28;20214;-42
2023/03/21 10:10:22;;;;;;;39.78;23.65;;;;;;;;;;5095214;28;20218;-43
2023/03/21 10:12:51;;;;;;;45.55;25.73;;;;;;;;;;5095759;28;20276;-44
2023/03/21 10:15:21;;;;;;;31.90;19.10;;;;;;;;;;5096284;28;20214;-43
2023/03/21 10:18:28;;;;;;;34.40;21.35;;;;;;;;;;5095733;28;20226;-43
2023/03/21 10:20:56;;;;;;;42.90;22.77;;;;;;;;;;5095939;28;20267;-44
2023/03/21 10:23:27;;;;;;;33.92;20.55;;;;;;;;;;5096163;28;20213;-43
2023/03/21 10:26:00;;;;;;;36.42;21.40;;;;;;;;;;5095524;28;20198;-43
2023/03/21 10:28:32;;;;;;;29.45;19.13;;;;;;;;;;5096084;28;20202;-43
2023/03/21 10:31:24;;;;;;;65.60;32.72;;;;;;;;;;5095797;28;20205;-43
2023/03/21 10:33:53;;;;;;;25.05;17.52;;;;;;;;;;5095574;28;20213;-44
2023/03/21 10:36:24;;;;;;;25.80;16.90;;;;;;;;;;5094742;28;20238;-43
2023/03/21 10:39:00;;;;;;;29.60;18.10;;;;;;;;;;5095562;28;20621;-43
2023/03/21 10:41:27;;;;;;;27.67;16.88;;;;;;;;;;5095616;28;20186;-43
2023/03/21 10:44:10;;;;;;;30.08;18.20;;;;;;;;;;5096200;28;20207;-43
2023/03/21 10:46:38;;;;;;;29.27;17.83;;;;;;;;;;5095480;28;20629;-43
2023/03/21 10:49:06;;;;;;;27.88;17.98;;;;;;;;;;5095464;28;20203;-44
2023/03/21 10:51:36;;;;;;;29.75;19.45;;;;;;;;;;5095303;28;20210;-43
2023/03/21 10:54:07;;;;;;;25.88;17.00;;;;;;;;;;5095276;28;20537;-43
2023/03/21 10:56:37;;;;;;;26.75;17.08;;;;;;;;;;5095115;28;20199;-43
2023/03/21 10:59:05;;;;;;;25.63;17.13;;;;;;;;;;5094570;28;20285;-42
2023/03/21 11:01:54;;;;;;;29.90;18.20;;;;;;;;;;5094384;28;20239;-45
2023/03/21 11:04:25;;;;;;;27.40;16.88;;;;;;;;;;5094521;28;20564;-44
2023/03/21 11:06:58;;;;;;;32.60;19.17;;;;;;;;;;5094533;28;20217;-43
2023/03/21 11:09:44;;;;;;;30.90;17.38;;;;;;;;;;5095885;28;20190;-43
2023/03/21 11:12:15;;;;;;;29.02;18.13;;;;;;;;;;5095463;28;20203;-43
2023/03/21 11:14:47;;;;;;;30.70;17.42;;;;;;;;;;5095270;28;20207;-47
2023/03/21 11:17:30;;;;;;;23.73;16.27;;;;;;;;;;5094068;28;20226;-44
2023/03/21 11:19:59;;;;;;;28.48;15.80;;;;;;;;;;5095503;28;20206;-44
2023/03/21 11:22:40;;;;;;;23.38;14.88;;;;;;;;;;5094946;28;20636;-43
2023/03/21 11:25:30;;;;;;;27.85;15.02;;;;;;;;;;5094163;28;20202;-44
2023/03/21 11:27:58;;;;;;;22.08;14.90;;;;;;;;;;5095074;28;20234;-45
2023/03/21 11:30:26;;;;;;;23.17;15.23;;;;;;;;;;5094620;28;20216;-43
2023/03/21 11:33:02;;;;;;;20.23;13.73;;;;;;;;;;5094482;28;20194;-43
2023/03/21 11:35:37;;;;;;;29.48;16.45;;;;;;;;;;5094304;28;20188;-43
2023/03/21 11:38:08;;;;;;;24.08;14.27;;;;;;;;;;5094634;28;20597;-43
2023/03/21 11:40:38;;;;;;;22.92;14.95;;;;;;;;;;5094998;28;20206;-43
2023/03/21 11:43:17;;;;;;;25.67;16.33;;;;;;;;;;5094937;28;20221;-43
2023/03/21 11:46:00;;;;;;;20.92;14.18;;;;;;;;;;5095164;28;20221;-43
2023/03/21 11:48:27;;;;;;;21.25;14.13;;;;;;;;;;5094990;28;20252;-43
2023/03/21 11:51:00;;;;;;;17.90;12.90;;;;;;;;;;5094798;28;20222;-43
2023/03/21 11:53:53;;;;;;;21.58;15.15;;;;;;;;;;5093871;28;20661;-43
2023/03/21 11:56:36;;;;;;;21.42;13.85;;;;;;;;;;5094934;28;20629;-43
2023/03/21 11:59:14;;;;;;;19.30;13.65;;;;;;;;;;5094554;28;20633;-43
2023/03/21 12:01:56;;;;;;;22.02;14.95;;;;;;;;;;5094622;28;20222;-43
2023/03/21 12:04:35;;;;;;;22.00;14.50;;;;;;;;;;5094104;28;20191;-43
2023/03/21 12:07:30;;;;;;;21.92;14.13;;;;;;;;;;5094568;28;20215;-43
2023/03/21 12:10:00;;;;;;;26.85;15.98;;;;;;;;;;5095117;28;20276;-43
2023/03/21 12:12:30;;;;;;;21.52;14.48;;;;;;;;;;5094559;28;20309;-43
2023/03/21 12:15:28;;;;;;;21.80;14.80;;;;;;;;;;5094395;28;20213;-42
2023/03/21 12:18:17;;;;;;;20.48;13.98;;;;;;;;;;5093481;28;20237;-44
2023/03/21 12:20:59;;;;;;;22.58;14.57;;;;;;;;;;5093795;28;20207;-44
2023/03/21 12:23:38;;;;;;;24.05;15.25;;;;;;;;;;5093139;28;20229;-43
2023/03/21 12:26:32;;;;;;;25.48;15.80;;;;;;;;;;5093723;28;20214;-43
2023/03/21 12:29:20;;;;;;;26.25;16.50;;;;;;;;;;5090572;28;20540;-43
2023/03/21 12:32:09;;;;;;;20.30;13.65;;;;;;;;;;5093624;28;20206;-43
2023/03/21 12:34:45;;;;;;;23.00;14.65;;;;;;;;;;5094207;28;20202;-43
2023/03/21 12:37:31;;;;;;;23.70;15.07;;;;;;;;;;5094159;28;20234;-43
2023/03/21 12:40:16;;;;;;;22.73;14.52;;;;;;;;;;5094340;28;20198;-43
2023/03/21 12:43:31;;;;;;;22.48;14.25;;;;;;;;;;5097460;28;20621;-45
2023/03/21 12:46:00;;;;;;;23.45;15.15;;;;;;;;;;5050441;28;20204;-46
2023/03/21 12:48:44;;;;;;;23.42;15.82;;;;;;;;;;5040335;28;20221;-44
2023/03/21 12:51:13;;;;;;;24.15;16.55;;;;;;;;;;5053422;28;20298;-46
2023/03/21 12:53:58;;;;;;;27.33;16.60;;;;;;;;;;5041717;28;20224;-43
2023/03/21 12:56:33;;;;;;;23.52;15.30;;;;;;;;;;5039275;28;20228;-45
2023/03/21 12:59:39;;;;;;;25.20;15.68;;;;;;;;;;5043941;28;20242;-44
2023/03/21 13:02:44;;;;;;;23.23;15.23;;;;;;;;;;5029065;28;20238;-44
2023/03/21 13:05:27;;;;;;;25.10;15.20;;;;;;;;;;4995049;28;20347;-46
2023/03/21 13:07:59;;;;;;;24.42;15.25;;;;;;;;;;5050164;28;20224;-46
2023/03/21 13:10:26;;;;;;;20.33;14.02;;;;;;;;;;5038306;28;20698;-46
2023/03/21 13:13:47;;;;;;;22.98;15.63;;;;;;;;;;5053939;28;20232;-49
2023/03/21 13:16:17;;;;;;;22.85;14.25;;;;;;;;;;4980868;28;20294;-47
2023/03/21 13:19:12;;;;;;;20.77;14.35;;;;;;;;;;5072615;28;20285;-44
2023/03/21 13:22:04;;;;;;;24.13;14.45;;;;;;;;;;5079412;28;20211;-45
2023/03/21 13:24:32;;;;;;;26.10;15.65;;;;;;;;;;5096686;28;20230;-46
2023/03/21 13:27:18;;;;;;;21.25;13.02;;;;;;;;;;5095111;28;20214;-45
2023/03/21 13:29:48;;;;;;;20.65;13.40;;;;;;;;;;5095725;28;20223;-45
2023/03/21 13:32:25;;;;;;;23.55;14.80;;;;;;;;;;5095351;28;20230;-50
2023/03/21 13:35:03;;;;;;;20.70;13.77;;;;;;;;;;5095315;28;20313;-48
2023/03/21 13:37:33;;;;;;;22.58;13.90;;;;;;;;;;5095181;28;20238;-45
2023/03/21 13:40:09;;;;;;;18.52;11.95;;;;;;;;;;5095150;28;20222;-44
2023/03/21 13:42:51;;;;;;;24.67;14.90;;;;;;;;;;5095344;28;20287;-46
2023/03/21 13:45:45;;;;;;;15.98;11.50;;;;;;;;;;5096132;28;20320;-45
2023/03/21 13:48:40;;;;;;;20.75;12.43;;;;;;;;;;5089166;28;20223;-46
2023/03/21 13:51:19;;;;;;;29.63;16.38;;;;;;;;;;5083294;28;20228;-47
2023/03/21 13:53:58;;;;;;;25.20;13.93;;;;;;;;;;5093723;28;20241;-46
2023/03/21 13:56:26;;;;;;;28.33;15.93;;;;;;;;;;5095348;28;20230;-50
2023/03/21 13:58:57;;;;;;;23.77;14.75;;;;;;;;;;5095046;28;20238;-54
2023/03/21 14:01:40;;;;;;;15.18;11.15;;;;;;;;;;5094725;28;20226;-45
2023/03/21 14:04:18;;;;;;;16.42;10.55;;;;;;;;;;5074774;28;20573;-45
2023/03/21 14:06:55;;;;;;;14.55;10.55;;;;;;;;;;5077155;28;20266;-47
2023/03/21 14:09:44;;;;;;;16.95;11.18;;;;;;;;;;5094196;28;20583;-45
2023/03/21 14:12:26;;;;;;;17.58;10.05;;;;;;;;;;5094385;28;20522;-47
2023/03/21 14:15:08;;;;;;;16.45;11.18;;;;;;;;;;5093954;28;20223;-60
2023/03/21 14:17:57;;;;;;;12.60;9.27;;;;;;;;;;5094555;28;20276;-46
2023/03/21 14:20:33;;;;;;;12.93;8.75;;;;;;;;;;5094149;28;20223;-47
2023/03/21 14:23:06;;;;;;;14.02;9.23;;;;;;;;;;5095031;28;20243;-48
2023/03/21 14:25:36;;;;;;;13.10;9.50;;;;;;;;;;5095221;28;20238;-47
2023/03/21 14:28:24;;;;;;;14.35;9.35;;;;;;;;;;5094010;28;20249;-47
2023/03/21 14:30:58;;;;;;;14.38;9.93;;;;;;;;;;5093029;28;20229;-48
2023/03/21 14:33:31;;;;;;;10.18;7.60;;;;;;;;;;5095009;28;20236;-46
2023/03/21 14:36:03;;;;;;;13.50;9.13;;;;;;;;;;5094648;28;20218;-46
2023/03/21 14:38:38;;;;;;;12.30;6.95;;;;;;;;;;5088033;28;20223;-46
2023/03/21 14:41:20;;;;;;;10.55;7.43;;;;;;;;;;5080245;28;20684;-51
2023/03/21 14:44:24;;;;;;;9.38;6.85;;;;;;;;;;5091196;28;20218;-47
2023/03/21 14:46:58;;;;;;;14.45;7.20;;;;;;;;;;5094244;28;20229;-54
2023/03/21 14:49:29;;;;;;;9.48;6.80;;;;;;;;;;5075209;28;20218;-47
2023/03/21 14:52:31;;;;;;;11.18;6.28;;;;;;;;;;5094609;28;20207;-53
2023/03/21 14:55:09;;;;;;;11.15;6.45;;;;;;;;;;5052040;28;20227;-51
2023/03/21 14:57:36;;;;;;;8.80;6.72;;;;;;;;;;5049108;28;20239;-46
2023/03/21 15:00:12;;;;;;;9.90;6.43;;;;;;;;;;5040408;28;20240;-48
2023/03/21 15:02:41;;;;;;;13.60;8.27;;;;;;;;;;5028475;28;20313;-43